sensor_id;sensor_type;location;lat;lon;timestamp;pressure;altitude;pressure_sealevel;temperature;humidity
12879;BME280;20617;49.476;10.986;2023-01-23T00:01:45;99534.75;;;2.68;100.00
12879;BME280;20617;49.476;10.986;2023-01-23T00:03:51;99535.47;;;2.56;100.00
12879;BME280;20617;49.476;10.986;2023-01-23T00:05:56;99542.28;;;2.56;100.00
12879;BME280;20617;49.476;10.986;2023-01-23T00:08:03;99539.63;;;2.45;100.00
12879;BME280;20617;49.476;10.986;2023-01-23T00:10:09;99538.84;;;2.51;100.00
12879;BME280;20617;49.476;10.986;2023-01-23T00:12:13;99545.69;;;2.52;100.00
12879;BME280;20617;49.476;10.986;2023-01-23T00:14:18;99545.47;;;2.30;100.00
12879;BME280;20617;49.476;10.986;2023-01-23T00:16:23;99558.34;;;2.33;100.00
12879;BME280;20617;49.476;10.986;2023-01-23T00:18:28;99552.31;;;2.33;100.00
12879;BME280;20617;49.476;10.986;2023-01-23T00:20:33;99559.19;;;2.34;100.00
12879;BME280;20617;49.476;10.986;2023-01-23T00:22:40;99554.06;;;2.35;100.00
12879;BME280;20617;49.476;10.986;2023-01-23T00:24:47;99560.94;;;2.38;100.00
12879;BME280;20617;49.476;10.986;2023-01-23T00:26:51;99559.34;;;2.46;100.00
12879;BME280;20617;49.476;10.986;2023-01-23T00:28:56;99561.94;;;2.49;100.00
12879;BME280;20617;49.476;10.986;2023-01-23T00:31:01;99557.59;;;2.43;100.00
12879;BME280;20617;49.476;10.986;2023-01-23T00:33:06;99566.94;;;2.38;100.00
12879;BME280;20617;49.476;10.986;2023-01-23T00:35:11;99556.66;;;2.37;100.00
12879;BME280;20617;49.476;10.986;2023-01-23T00:37:16;99548.06;;;2.33;100.00
12879;BME280;20617;49.476;10.986;2023-01-23T00:39:23;99549.84;;;2.39;100.00
12879;BME280;20617;49.476;10.986;2023-01-23T00:41:30;99554.97;;;2.40;100.00
12879;BME280;20617;49.476;10.986;2023-01-23T00:43:35;99563.63;;;2.45;100.00
12879;BME280;20617;49.476;10.986;2023-01-23T00:45:39;99551.59;;;2.43;100.00
12879;BME280;20617;49.476;10.986;2023-01-23T00:47:46;99552.44;;;2.42;100.00
12879;BME280;20617;49.476;10.986;2023-01-23T00:49:51;99560.13;;;2.39;100.00
12879;BME280;20617;49.476;10.986;2023-01-23T00:51:58;99563.59;;;2.42;100.00
12879;BME280;20617;49.476;10.986;2023-01-23T00:54:02;99560.13;;;2.39;100.00
12879;BME280;20617;49.476;10.986;2023-01-23T00:56:07;99564.34;;;2.35;100.00
12879;BME280;20617;49.476;10.986;2023-01-23T00:58:14;99565.16;;;2.33;100.00
12879;BME280;20617;49.476;10.986;2023-01-23T01:00:19;99571.16;;;2.32;100.00
12879;BME280;20617;49.476;10.986;2023-01-23T01:02:24;99571.22;;;2.38;100.00
12879;BME280;20617;49.476;10.986;2023-01-23T01:04:28;99574.66;;;2.38;100.00
12879;BME280;20617;49.476;10.986;2023-01-23T01:06:36;99576.41;;;2.39;100.00
12879;BME280;20617;49.476;10.986;2023-01-23T01:08:40;99584.13;;;2.41;100.00
12879;BME280;20617;49.476;10.986;2023-01-23T01:10:45;99575.56;;;2.43;100.00
12879;BME280;20617;49.476;10.986;2023-01-23T01:12:50;99573.00;;;2.43;100.00
12879;BME280;20617;49.476;10.986;2023-01-23T01:14:57;99582.44;;;2.43;100.00
12879;BME280;20617;49.476;10.986;2023-01-23T01:17:02;99578.16;;;2.42;100.00
12879;BME280;20617;49.476;10.986;2023-01-23T01:19:07;99579.91;;;2.44;100.00
12879;BME280;20617;49.476;10.986;2023-01-23T01:21:13;99582.44;;;2.43;100.00
12879;BME280;20617;49.476;10.986;2023-01-23T01:23:18;99579.94;;;2.49;100.00
12879;BME280;20617;49.476;10.986;2023-01-23T01:25:22;99579.00;;;2.44;100.00
12879;BME280;20617;49.476;10.986;2023-01-23T01:27:28;99589.28;;;2.44;100.00
12879;BME280;20617;49.476;10.986;2023-01-23T01:29:32;99599.50;;;2.36;100.00
12879;BME280;20617;49.476;10.986;2023-01-23T01:31:40;99597.78;;;2.37;100.00
12879;BME280;20617;49.476;10.986;2023-01-23T01:33:45;99601.22;;;2.37;100.00
12879;BME280;20617;49.476;10.986;2023-01-23T01:35:52;99598.72;;;2.42;100.00
12879;BME280;20617;49.476;10.986;2023-01-23T01:37:57;99597.88;;;2.44;100.00
12879;BME280;20617;49.476;10.986;2023-01-23T01:40:02;99599.59;;;2.45;100.00
12879;BME280;20617;49.476;10.986;2023-01-23T01:42:06;99596.13;;;2.43;100.00
12879;BME280;20617;49.476;10.986;2023-01-23T01:44:12;99601.25;;;2.39;100.00
12879;BME280;20617;49.476;10.986;2023-01-23T01:46:20;99603.69;;;2.31;100.00
12879;BME280;20617;49.476;10.986;2023-01-23T01:48:28;99607.25;;;2.41;100.00
12879;BME280;20617;49.476;10.986;2023-01-23T01:50:34;99608.19;;;2.47;100.00
12879;BME280;20617;49.476;10.986;2023-01-23T01:52:39;99601.31;;;2.45;100.00
12879;BME280;20617;49.476;10.986;2023-01-23T01:54:45;99607.34;;;2.48;100.00
12879;BME280;20617;49.476;10.986;2023-01-23T01:56:50;99604.84;;;2.55;100.00
12879;BME280;20617;49.476;10.986;2023-01-23T01:58:56;99601.44;;;2.59;100.00
12879;BME280;20617;49.476;10.986;2023-01-23T02:01:02;99606.59;;;2.59;100.00
12879;BME280;20617;49.476;10.986;2023-01-23T02:03:06;99604.03;;;2.59;100.00
12879;BME280;20617;49.476;10.986;2023-01-23T02:05:17;99601.41;;;2.56;100.00
12879;BME280;20617;49.476;10.986;2023-01-23T02:07:24;99602.31;;;2.58;100.00
12879;BME280;20617;49.476;10.986;2023-01-23T02:09:30;99602.34;;;2.59;100.00
12879;BME280;20617;49.476;10.986;2023-01-23T02:11:35;99603.22;;;2.63;100.00
12879;BME280;20617;49.476;10.986;2023-01-23T02:13:40;99604.88;;;2.56;100.00
12879;BME280;20617;49.476;10.986;2023-01-23T02:15:46;99600.56;;;2.54;100.00
12879;BME280;20617;49.476;10.986;2023-01-23T02:17:51;99599.69;;;2.53;100.00
12879;BME280;20617;49.476;10.986;2023-01-23T02:19:59;99604.00;;;2.56;100.00
12879;BME280;20617;49.476;10.986;2023-01-23T02:22:12;99616.72;;;2.46;100.00
12879;BME280;20617;49.476;10.986;2023-01-23T02:24:22;99614.97;;;2.42;100.00
12879;BME280;20617;49.476;10.986;2023-01-23T02:26:33;99619.25;;;2.43;100.00
12879;BME280;20617;49.476;10.986;2023-01-23T02:28:39;99620.06;;;2.36;100.00
12879;BME280;20617;49.476;10.986;2023-01-23T02:30:46;99616.56;;;2.31;100.00
12879;BME280;20617;49.476;10.986;2023-01-23T02:33:05;99624.19;;;2.25;100.00
12879;BME280;20617;49.476;10.986;2023-01-23T02:35:11;99625.84;;;2.23;100.00
12879;BME280;20617;49.476;10.986;2023-01-23T02:37:16;99628.41;;;2.21;100.00
12879;BME280;20617;49.476;10.986;2023-01-23T02:39:22;99635.22;;;2.19;100.00
12879;BME280;20617;49.476;10.986;2023-01-23T02:41:32;99632.63;;;2.16;100.00
12879;BME280;20617;49.476;10.986;2023-01-23T02:43:37;99629.31;;;2.26;100.00
12879;BME280;20617;49.476;10.986;2023-01-23T02:45:42;99627.56;;;2.24;100.00
12879;BME280;20617;49.476;10.986;2023-01-23T02:47:48;99630.19;;;2.25;100.00
12879;BME280;20617;49.476;10.986;2023-01-23T02:49:54;99630.13;;;2.22;100.00
12879;BME280;20617;49.476;10.986;2023-01-23T02:51:59;99630.19;;;2.25;100.00
12879;BME280;20617;49.476;10.986;2023-01-23T02:54:04;99624.25;;;2.31;100.00
12879;BME280;20617;49.476;10.986;2023-01-23T02:56:09;99630.28;;;2.35;100.00
12879;BME280;20617;49.476;10.986;2023-01-23T02:58:16;99626.00;;;2.34;100.00
12879;BME280;20617;49.476;10.986;2023-01-23T03:00:33;99623.44;;;2.34;100.00
12879;BME280;20617;49.476;10.986;2023-01-23T03:02:37;99617.41;;;2.32;100.00
12879;BME280;20617;49.476;10.986;2023-01-23T03:04:43;99613.97;;;2.31;100.00
12879;BME280;20617;49.476;10.986;2023-01-23T03:06:48;99608.78;;;2.26;100.00
12879;BME280;20617;49.476;10.986;2023-01-23T03:08:53;99600.97;;;2.20;100.00
12879;BME280;20617;49.476;10.986;2023-01-23T03:10:58;99606.16;;;2.22;100.00
12879;BME280;20617;49.476;10.986;2023-01-23T03:13:02;99604.44;;;2.24;100.00
12879;BME280;20617;49.476;10.986;2023-01-23T03:15:11;99606.97;;;2.21;100.00
12879;BME280;20617;49.476;10.986;2023-01-23T03:17:16;99602.72;;;2.23;100.00
12879;BME280;20617;49.476;10.986;2023-01-23T03:19:22;99598.44;;;2.22;100.00
12879;BME280;20617;49.476;10.986;2023-01-23T03:21:27;99595.88;;;2.22;100.00
12879;BME280;20617;49.476;10.986;2023-01-23T03:23:32;99598.44;;;2.23;100.00
12879;BME280;20617;49.476;10.986;2023-01-23T03:25:37;99600.97;;;2.20;100.00
12879;BME280;20617;49.476;10.986;2023-01-23T03:27:46;99595.00;;;2.20;100.00
12879;BME280;20617;49.476;10.986;2023-01-23T03:29:51;99593.31;;;2.22;100.00
12879;BME280;20617;49.476;10.986;2023-01-23T03:32:11;99589.03;;;2.22;100.00
12879;BME280;20617;49.476;10.986;2023-01-23T03:34:17;99590.75;;;2.23;100.00
12879;BME280;20617;49.476;10.986;2023-01-23T03:36:22;99587.28;;;2.18;100.00
12879;BME280;20617;49.476;10.986;2023-01-23T03:38:27;99590.72;;;2.19;100.00
12879;BME280;20617;49.476;10.986;2023-01-23T03:40:32;99594.13;;;2.19;100.00
12879;BME280;20617;49.476;10.986;2023-01-23T03:42:50;99591.56;;;2.21;100.00
12879;BME280;20617;49.476;10.986;2023-01-23T03:45:00;99589.88;;;2.23;100.00
12879;BME280;20617;49.476;10.986;2023-01-23T03:47:07;99598.44;;;2.22;100.00
12879;BME280;20617;49.476;10.986;2023-01-23T03:49:16;99598.44;;;2.22;100.00
12879;BME280;20617;49.476;10.986;2023-01-23T03:51:27;99604.34;;;2.15;100.00
12879;BME280;20617;49.476;10.986;2023-01-23T03:53:32;99604.41;;;2.19;100.00
12879;BME280;20617;49.476;10.986;2023-01-23T03:55:37;99594.88;;;2.12;100.00
12879;BME280;20617;49.476;10.986;2023-01-23T03:57:41;99594.91;;;2.14;100.00
12879;BME280;20617;49.476;10.986;2023-01-23T03:59:57;99598.38;;;2.17;100.00
12879;BME280;20617;49.476;10.986;2023-01-23T04:02:14;99608.69;;;2.19;100.00
12879;BME280;20617;49.476;10.986;2023-01-23T04:04:21;99607.94;;;2.28;100.00
12879;BME280;20617;49.476;10.986;2023-01-23T04:06:26;99608.00;;;2.32;100.00
12879;BME280;20617;49.476;10.986;2023-01-23T04:08:30;99607.13;;;2.30;100.00
12879;BME280;20617;49.476;10.986;2023-01-23T04:10:35;99614.78;;;2.27;100.00
12879;BME280;20617;49.476;10.986;2023-01-23T04:12:47;99610.47;;;2.26;100.00
12879;BME280;20617;49.476;10.986;2023-01-23T04:14:52;99618.94;;;2.17;100.00
12879;BME280;20617;49.476;10.986;2023-01-23T04:16:57;99617.28;;;2.24;100.00
12879;BME280;20617;49.476;10.986;2023-01-23T04:19:02;99624.22;;;2.28;100.00
12879;BME280;20617;49.476;10.986;2023-01-23T04:21:09;99628.50;;;2.28;100.00
12879;BME280;20617;49.476;10.986;2023-01-23T04:23:14;99632.78;;;2.29;100.00
12879;BME280;20617;49.476;10.986;2023-01-23T04:25:18;99635.44;;;2.33;100.00
12879;BME280;20617;49.476;10.986;2023-01-23T04:27:23;99627.66;;;2.29;100.00
12879;BME280;20617;49.476;10.986;2023-01-23T04:29:29;99632.63;;;2.18;100.00
12879;BME280;20617;49.476;10.986;2023-01-23T04:31:35;99624.91;;;2.16;100.00
12879;BME280;20617;49.476;10.986;2023-01-23T04:33:40;99624.06;;;2.16;100.00
12879;BME280;20617;49.476;10.986;2023-01-23T04:35:49;99632.63;;;2.18;100.00
12879;BME280;20617;49.476;10.986;2023-01-23T04:37:57;99623.25;;;2.18;100.00
12879;BME280;20617;49.476;10.986;2023-01-23T04:40:03;99618.16;;;2.23;100.00
12879;BME280;20617;49.476;10.986;2023-01-23T04:42:17;99621.66;;;2.28;100.00
12879;BME280;20617;49.476;10.986;2023-01-23T04:44:35;99619.97;;;2.30;100.00
12879;BME280;20617;49.476;10.986;2023-01-23T04:47:10;99619.16;;;2.34;100.00
12879;BME280;20617;49.476;10.986;2023-01-23T04:49:15;99620.06;;;2.36;100.00
12879;BME280;20617;49.476;10.986;2023-01-23T04:51:21;99621.69;;;2.33;100.00
12879;BME280;20617;49.476;10.986;2023-01-23T04:53:28;99612.31;;;2.33;100.00
12879;BME280;20617;49.476;10.986;2023-01-23T04:55:35;99620.00;;;2.33;100.00
12879;BME280;20617;49.476;10.986;2023-01-23T04:57:43;99620.78;;;2.29;100.00
12879;BME280;20617;49.476;10.986;2023-01-23T04:59:57;99613.09;;;2.28;100.00
12879;BME280;20617;49.476;10.986;2023-01-23T05:02:03;99620.78;;;2.29;100.00
12879;BME280;20617;49.476;10.986;2023-01-23T05:04:14;99613.94;;;2.28;100.00
12879;BME280;20617;49.476;10.986;2023-01-23T05:06:21;99618.22;;;2.29;100.00
12879;BME280;20617;49.476;10.986;2023-01-23T05:08:31;99625.06;;;2.29;100.00
12879;BME280;20617;49.476;10.986;2023-01-23T05:10:45;99625.16;;;2.33;100.00
12879;BME280;20617;49.476;10.986;2023-01-23T05:12:52;99634.59;;;2.36;100.00
12879;BME280;20617;49.476;10.986;2023-01-23T05:14:59;99632.94;;;2.39;100.00
12879;BME280;20617;49.476;10.986;2023-01-23T05:17:04;99638.03;;;2.36;100.00
12879;BME280;20617;49.476;10.986;2023-01-23T05:19:13;99643.25;;;2.42;100.00
12879;BME280;20617;49.476;10.986;2023-01-23T05:21:19;99630.41;;;2.44;100.00
12879;BME280;20617;49.476;10.986;2023-01-23T05:23:23;99638.94;;;2.41;100.00
12879;BME280;20617;49.476;10.986;2023-01-23T05:25:31;99643.22;;;2.39;100.00
12879;BME280;20617;49.476;10.986;2023-01-23T05:27:37;99641.47;;;2.38;100.00
12879;BME280;20617;49.476;10.986;2023-01-23T05:29:42;99642.34;;;2.39;100.00
12879;BME280;20617;49.476;10.986;2023-01-23T05:31:54;99646.59;;;2.38;100.00
12879;BME280;20617;49.476;10.986;2023-01-23T05:34:11;99647.47;;;2.37;100.00
12879;BME280;20617;49.476;10.986;2023-01-23T05:36:15;99643.97;;;2.32;100.00
12879;BME280;20617;49.476;10.986;2023-01-23T05:38:21;99646.41;;;2.23;100.00
12879;BME280;20617;49.476;10.986;2023-01-23T05:40:27;99651.59;;;2.26;100.00
12879;BME280;20617;49.476;10.986;2023-01-23T05:42:52;99658.56;;;2.35;100.00
12879;BME280;20617;49.476;10.986;2023-01-23T05:45:15;99659.41;;;2.35;100.00
12879;BME280;20617;49.476;10.986;2023-01-23T05:47:21;99664.56;;;2.35;100.00
12879;BME280;20617;49.476;10.986;2023-01-23T05:49:26;99666.22;;;2.30;100.00
12879;BME280;20617;49.476;10.986;2023-01-23T05:51:31;99666.09;;;2.22;100.00
12879;BME280;20617;49.476;10.986;2023-01-23T05:53:35;99675.56;;;2.25;100.00
12879;BME280;20617;49.476;10.986;2023-01-23T05:55:41;99679.03;;;2.29;100.00
12879;BME280;20617;49.476;10.986;2023-01-23T05:57:47;99687.63;;;2.32;100.00
12879;BME280;20617;49.476;10.986;2023-01-23T06:00:27;99689.38;;;2.33;100.00
12879;BME280;20617;49.476;10.986;2023-01-23T06:03:01;99679.91;;;2.29;100.00
12879;BME280;20617;49.476;10.986;2023-01-23T06:05:39;99689.22;;;2.22;100.00
12879;BME280;20617;49.476;10.986;2023-01-23T06:07:50;99696.84;;;2.16;100.00
12879;BME280;20617;49.476;10.986;2023-01-23T06:09:54;99700.19;;;2.11;100.00
12879;BME280;20617;49.476;10.986;2023-01-23T06:11:59;99693.38;;;2.13;100.00
12879;BME280;20617;49.476;10.986;2023-01-23T06:14:04;99700.19;;;2.12;100.00
12879;BME280;20617;49.476;10.986;2023-01-23T06:16:11;99703.69;;;2.17;100.00
12879;BME280;20617;49.476;10.986;2023-01-23T06:18:17;99703.75;;;2.20;100.00
12879;BME280;20617;49.476;10.986;2023-01-23T06:20:22;99703.69;;;2.16;100.00
12879;BME280;20617;49.476;10.986;2023-01-23T06:22:27;99711.38;;;2.14;100.00
12879;BME280;20617;49.476;10.986;2023-01-23T06:24:39;99716.53;;;2.17;100.00
12879;BME280;20617;49.476;10.986;2023-01-23T06:26:44;99724.19;;;2.13;100.00
12879;BME280;20617;49.476;10.986;2023-01-23T06:28:49;99725.88;;;2.12;100.00
12879;BME280;20617;49.476;10.986;2023-01-23T06:30:53;99729.31;;;2.11;100.00
12879;BME280;20617;49.476;10.986;2023-01-23T06:33:11;99731.81;;;2.08;100.00
12879;BME280;20617;49.476;10.986;2023-01-23T06:35:15;99738.56;;;2.01;100.00
12879;BME280;20617;49.476;10.986;2023-01-23T06:37:20;99742.72;;;1.95;100.00
12879;BME280;20617;49.476;10.986;2023-01-23T06:39:25;99752.03;;;1.88;100.00
12879;BME280;20617;49.476;10.986;2023-01-23T06:41:31;99750.38;;;1.92;100.00
12879;BME280;20617;49.476;10.986;2023-01-23T06:43:38;99753.00;;;1.95;100.00
12879;BME280;20617;49.476;10.986;2023-01-23T06:45:49;99750.47;;;1.96;100.00
12879;BME280;20617;49.476;10.986;2023-01-23T06:47:54;99755.56;;;1.95;100.00
12879;BME280;20617;49.476;10.986;2023-01-23T06:50:03;99753.94;;;1.98;100.00
12879;BME280;20617;49.476;10.986;2023-01-23T06:52:11;99752.38;;;2.08;100.00
12879;BME280;20617;49.476;10.986;2023-01-23T06:54:18;99753.38;;;2.16;100.00
12879;BME280;20617;49.476;10.986;2023-01-23T06:56:23;99756.06;;;2.25;100.00
12879;BME280;20617;49.476;10.986;2023-01-23T06:58:28;99753.59;;;2.30;100.00
12879;BME280;20617;49.476;10.986;2023-01-23T07:00:32;99757.88;;;2.31;100.00
12879;BME280;20617;49.476;10.986;2023-01-23T07:02:39;99757.81;;;2.28;100.00
12879;BME280;20617;49.476;10.986;2023-01-23T07:04:46;99762.06;;;2.26;100.00
12879;BME280;20617;49.476;10.986;2023-01-23T07:06:53;99769.88;;;2.32;100.00
12879;BME280;20617;49.476;10.986;2023-01-23T07:08:58;99769.91;;;2.34;100.00
12879;BME280;20617;49.476;10.986;2023-01-23T07:11:03;99774.22;;;2.36;100.00
12879;BME280;20617;49.476;10.986;2023-01-23T07:13:09;99769.88;;;2.32;100.00
12879;BME280;20617;49.476;10.986;2023-01-23T07:15:15;99774.16;;;2.32;100.00
12879;BME280;20617;49.476;10.986;2023-01-23T07:17:21;99771.53;;;2.29;100.00
12879;BME280;20617;49.476;10.986;2023-01-23T07:19:26;99780.09;;;2.28;100.00
12879;BME280;20617;49.476;10.986;2023-01-23T07:21:32;99769.88;;;2.32;100.00
12879;BME280;20617;49.476;10.986;2023-01-23T07:23:40;99776.72;;;2.30;100.00
12879;BME280;20617;49.476;10.986;2023-01-23T07:25:44;99769.81;;;2.28;100.00
12879;BME280;20617;49.476;10.986;2023-01-23T07:27:49;99778.28;;;2.23;100.00
12879;BME280;20617;49.476;10.986;2023-01-23T07:29:53;99784.34;;;2.25;100.00
12879;BME280;20617;49.476;10.986;2023-01-23T07:31:58;99778.34;;;2.25;100.00
12879;BME280;20617;49.476;10.986;2023-01-23T07:34:03;99778.25;;;2.19;100.00
12879;BME280;20617;49.476;10.986;2023-01-23T07:36:08;99774.00;;;2.22;100.00
12879;BME280;20617;49.476;10.986;2023-01-23T07:38:14;99776.63;;;2.25;100.00
12879;BME280;20617;49.476;10.986;2023-01-23T07:40:21;99773.25;;;2.28;100.00
12879;BME280;20617;49.476;10.986;2023-01-23T07:42:26;99779.19;;;2.25;100.00
12879;BME280;20617;49.476;10.986;2023-01-23T07:44:31;99787.72;;;2.23;100.00
12879;BME280;20617;49.476;10.986;2023-01-23T07:46:35;99785.19;;;2.24;100.00
12879;BME280;20617;49.476;10.986;2023-01-23T07:48:40;99800.59;;;2.24;100.00
12879;BME280;20617;49.476;10.986;2023-01-23T07:50:45;99799.75;;;2.25;100.00
12879;BME280;20617;49.476;10.986;2023-01-23T07:52:49;99794.56;;;2.22;100.00
12879;BME280;20617;49.476;10.986;2023-01-23T07:54:57;99801.41;;;2.22;100.00
12879;BME280;20617;49.476;10.986;2023-01-23T07:57:04;99794.50;;;2.19;100.00
12879;BME280;20617;49.476;10.986;2023-01-23T07:59:09;99792.78;;;2.18;100.00
12879;BME280;20617;49.476;10.986;2023-01-23T08:01:15;99791.00;;;2.14;100.00
12879;BME280;20617;49.476;10.986;2023-01-23T08:03:19;99790.22;;;2.18;100.00
12879;BME280;20617;49.476;10.986;2023-01-23T08:05:24;99784.28;;;2.22;100.00
12879;BME280;20617;49.476;10.986;2023-01-23T08:07:29;99787.72;;;2.23;100.00
12879;BME280;20617;49.476;10.986;2023-01-23T08:09:33;99782.63;;;2.24;100.00
12879;BME280;20617;49.476;10.986;2023-01-23T08:11:38;99785.00;;;2.14;100.00
12879;BME280;20617;49.476;10.986;2023-01-23T08:13:47;99777.16;;;2.04;100.00
12879;BME280;20617;49.476;10.986;2023-01-23T08:15:52;99785.72;;;2.05;100.00
12879;BME280;20617;49.476;10.986;2023-01-23T08:17:56;99787.56;;;2.14;100.00
12879;BME280;20617;49.476;10.986;2023-01-23T08:20:01;99788.53;;;2.19;100.00
12879;BME280;20617;49.476;10.986;2023-01-23T08:22:06;99785.84;;;2.13;100.00
12879;BME280;20617;49.476;10.986;2023-01-23T08:24:10;99780.84;;;2.22;100.00
12879;BME280;20617;49.476;10.986;2023-01-23T08:26:15;99783.44;;;2.23;100.00
12879;BME280;20617;49.476;10.986;2023-01-23T08:28:22;99790.34;;;2.26;100.00
12879;BME280;20617;49.476;10.986;2023-01-23T08:30:29;99794.66;;;2.29;100.00
12879;BME280;20617;49.476;10.986;2023-01-23T08:32:34;99794.69;;;2.30;100.00
12879;BME280;20617;49.476;10.986;2023-01-23T08:34:39;99793.03;;;2.34;100.00
12879;BME280;20617;49.476;10.986;2023-01-23T08:36:44;99797.13;;;2.24;100.00
12879;BME280;20617;49.476;10.986;2023-01-23T08:38:48;99792.03;;;2.25;100.00
12879;BME280;20617;49.476;10.986;2023-01-23T08:40:53;99801.47;;;2.26;100.00
12879;BME280;20617;49.476;10.986;2023-01-23T08:42:58;99794.69;;;2.32;100.00
12879;BME280;20617;49.476;10.986;2023-01-23T08:45:03;99797.31;;;2.35;100.00
12879;BME280;20617;49.476;10.986;2023-01-23T08:47:10;99807.59;;;2.35;100.00
12879;BME280;20617;49.476;10.986;2023-01-23T08:49:15;99803.44;;;2.43;100.00
12879;BME280;20617;49.476;10.986;2023-01-23T08:51:20;99799.97;;;2.41;100.00
12879;BME280;20617;49.476;10.986;2023-01-23T08:53:26;99806.06;;;2.44;100.00
12879;BME280;20617;49.476;10.986;2023-01-23T08:55:31;99791.44;;;2.42;100.00
12879;BME280;20617;49.476;10.986;2023-01-23T08:57:36;99800.06;;;2.47;100.00
12879;BME280;20617;49.476;10.986;2023-01-23T08:59:41;99791.53;;;2.49;100.00
12879;BME280;20617;49.476;10.986;2023-01-23T09:01:46;99800.97;;;2.47;100.00
12879;BME280;20617;49.476;10.986;2023-01-23T09:03:53;99800.06;;;2.47;100.00
12879;BME280;20617;49.476;10.986;2023-01-23T09:05:59;99794.94;;;2.45;100.00
12879;BME280;20617;49.476;10.986;2023-01-23T09:08:04;99797.53;;;2.48;100.00
12879;BME280;20617;49.476;10.986;2023-01-23T09:10:09;99795.00;;;2.52;100.00
12879;BME280;20617;49.476;10.986;2023-01-23T09:12:14;99797.41;;;2.41;100.00
12879;BME280;20617;49.476;10.986;2023-01-23T09:14:18;99801.78;;;2.46;100.00
12879;BME280;20617;49.476;10.986;2023-01-23T09:16:23;99798.44;;;2.52;100.00
12879;BME280;20617;49.476;10.986;2023-01-23T09:18:28;99804.66;;;2.65;100.00
12879;BME280;20617;49.476;10.986;2023-01-23T09:20:36;99789.31;;;2.72;100.00
12879;BME280;20617;49.476;10.986;2023-01-23T09:22:40;99801.44;;;2.81;100.00
12879;BME280;20617;49.476;10.986;2023-01-23T09:24:45;99793.84;;;2.89;100.00
12879;BME280;20617;49.476;10.986;2023-01-23T09:26:49;99804.13;;;2.89;100.00
12879;BME280;20617;49.476;10.986;2023-01-23T09:28:54;99789.66;;;2.99;100.00
12879;BME280;20617;49.476;10.986;2023-01-23T09:31:01;99793.06;;;2.96;100.00
12879;BME280;20617;49.476;10.986;2023-01-23T09:33:06;99789.63;;;2.95;100.00
12879;BME280;20617;49.476;10.986;2023-01-23T09:35:10;99785.31;;;2.93;100.00
12879;BME280;20617;49.476;10.986;2023-01-23T09:37:18;99779.31;;;2.91;100.00
12879;BME280;20617;49.476;10.986;2023-01-23T09:39:22;99778.44;;;2.92;100.00
12879;BME280;20617;49.476;10.986;2023-01-23T09:41:27;99784.44;;;2.92;100.00
12879;BME280;20617;49.476;10.986;2023-01-23T09:43:34;99779.31;;;2.92;100.00
12879;BME280;20617;49.476;10.986;2023-01-23T09:45:42;99781.91;;;2.94;100.00
12879;BME280;20617;49.476;10.986;2023-01-23T09:47:52;99785.31;;;2.91;100.00
12879;BME280;20617;49.476;10.986;2023-01-23T09:49:58;99768.19;;;2.95;100.00
12879;BME280;20617;49.476;10.986;2023-01-23T09:52:05;99780.22;;;2.98;100.00
12879;BME280;20617;49.476;10.986;2023-01-23T09:54:19;99779.38;;;2.97;100.00
12879;BME280;20617;49.476;10.986;2023-01-23T09:56:27;99787.06;;;2.95;100.00
12879;BME280;20617;49.476;10.986;2023-01-23T09:58:33;99788.00;;;3.02;100.00
12879;BME280;20617;49.476;10.986;2023-01-23T10:00:40;99770.84;;;3.01;100.00
12879;BME280;20617;49.476;10.986;2023-01-23T10:02:45;99787.22;;;3.06;100.00
12879;BME280;20617;49.476;10.986;2023-01-23T10:04:50;99782.03;;;3.05;100.00
12879;BME280;20617;49.476;10.986;2023-01-23T10:07:05;99773.59;;;3.16;100.00
12879;BME280;20617;49.476;10.986;2023-01-23T10:09:21;99770.91;;;3.06;100.00
12879;BME280;20617;49.476;10.986;2023-01-23T10:11:32;99782.84;;;3.01;100.00
12879;BME280;20617;49.476;10.986;2023-01-23T10:13:49;99778.66;;;3.10;100.00
12879;BME280;20617;49.476;10.986;2023-01-23T10:18:18;99773.00;;;3.37;100.00
12879;BME280;20617;49.476;10.986;2023-01-23T10:22:49;99764.25;;;3.25;100.00
12879;BME280;20617;49.476;10.986;2023-01-23T10:25:06;99762.47;;;3.19;100.00
12879;BME280;20617;49.476;10.986;2023-01-23T10:27:16;99765.16;;;3.28;100.00
12879;BME280;20617;49.476;10.986;2023-01-23T10:29:25;99765.19;;;3.31;100.00
12879;BME280;20617;49.476;10.986;2023-01-23T10:31:34;99767.75;;;3.31;100.00
12879;BME280;20617;49.476;10.986;2023-01-23T10:33:41;99760.13;;;3.37;100.00
12879;BME280;20617;49.476;10.986;2023-01-23T10:35:50;99755.09;;;3.47;100.00
12879;BME280;20617;49.476;10.986;2023-01-23T10:40:08;99747.50;;;3.63;100.00
12879;BME280;20617;49.476;10.986;2023-01-23T10:42:18;99744.09;;;3.65;100.00
12879;BME280;20617;49.476;10.986;2023-01-23T10:44:24;99746.63;;;3.60;100.00
12879;BME280;20617;49.476;10.986;2023-01-23T10:46:32;99753.63;;;3.73;100.00
12879;BME280;20617;49.476;10.986;2023-01-23T10:48:41;99747.66;;;3.79;100.00
12879;BME280;20617;49.476;10.986;2023-01-23T10:50:46;99744.34;;;3.92;100.00
12879;BME280;20617;49.476;10.986;2023-01-23T10:53:04;99743.63;;;4.10;100.00
12879;BME280;20617;49.476;10.986;2023-01-23T10:55:29;99744.56;;;4.20;100.00
12879;BME280;20617;49.476;10.986;2023-01-23T10:57:43;99741.03;;;4.10;100.00
12879;BME280;20617;49.476;10.986;2023-01-23T10:59:53;99739.22;;;3.95;100.00
12879;BME280;20617;49.476;10.986;2023-01-23T11:02:17;99735.69;;;3.82;100.00
12879;BME280;20617;49.476;10.986;2023-01-23T11:04:24;99745.06;;;3.77;100.00
12879;BME280;20617;49.476;10.986;2023-01-23T11:06:30;99748.59;;;3.89;100.00
12879;BME280;20617;49.476;10.986;2023-01-23T11:08:36;99747.06;;;4.07;100.00
12879;BME280;20617;49.476;10.986;2023-01-23T11:10:44;99748.91;;;4.22;100.00
12879;BME280;20617;49.476;10.986;2023-01-23T11:12:51;99738.53;;;4.13;100.00